createdAt,value
2019-02-26T00:00:07.648Z,3.20
2019-02-26T00:01:07.197Z,3.30
2019-02-26T00:02:07.186Z,2.90
2019-02-26T00:03:07.186Z,3.40
2019-02-26T00:04:07.172Z,2.60
2019-02-26T00:05:07.149Z,2.70
2019-02-26T00:06:07.175Z,3.60
2019-02-26T00:07:07.129Z,3.10
2019-02-26T00:08:07.133Z,2.70
2019-02-26T00:09:07.119Z,3.30
2019-02-26T00:10:07.197Z,3.20
2019-02-26T00:11:08.480Z,3.30
2019-02-26T00:12:07.074Z,2.80
2019-02-26T00:13:07.088Z,3.40
2019-02-26T00:14:07.151Z,3.90
2019-02-26T00:15:07.044Z,3.10
2019-02-26T00:16:07.998Z,4.20
2019-02-26T00:17:10.419Z,2.90
2019-02-26T00:18:09.466Z,3.00
2019-02-26T00:19:07.445Z,3.80
2019-02-26T00:20:07.987Z,2.80
2019-02-26T00:21:07.059Z,2.80
2019-02-26T00:22:07.807Z,3.30
2019-02-26T00:23:06.965Z,3.40
2019-02-26T00:24:07.873Z,3.80
2019-02-26T00:25:08.510Z,3.50
2019-02-26T00:26:06.930Z,4.30
2019-02-26T00:27:07.639Z,3.30
2019-02-26T00:28:06.951Z,2.80
2019-02-26T00:29:08.392Z,3.60
2019-02-26T00:30:08.679Z,4.20
2019-02-26T00:31:06.880Z,5.00
2019-02-26T00:32:07.598Z,3.70
2019-02-26T00:33:06.855Z,4.70
2019-02-26T00:34:08.295Z,3.20
2019-02-26T00:35:06.833Z,3.00
2019-02-26T00:36:08.920Z,3.20
2019-02-26T00:37:08.515Z,3.10
2019-02-26T00:38:08.878Z,3.10
2019-02-26T00:39:07.272Z,2.70
2019-02-26T00:40:07.897Z,3.70
2019-02-26T00:41:06.766Z,3.00
2019-02-26T00:42:06.787Z,3.10
2019-02-26T00:43:06.751Z,2.60
2019-02-26T00:44:06.785Z,3.80
2019-02-26T00:45:07.923Z,3.40
2019-02-26T00:46:08.127Z,4.00
2019-02-26T00:47:08.860Z,3.60
2019-02-26T00:48:06.693Z,2.80
2019-02-26T00:49:07.594Z,3.10
2019-02-26T00:50:07.386Z,2.50
2019-02-26T00:51:06.656Z,3.40
2019-02-26T00:52:08.547Z,2.40
2019-02-26T00:53:06.643Z,3.70
2019-02-26T00:54:06.735Z,3.40
2019-02-26T00:55:07.121Z,2.90
2019-02-26T00:56:08.003Z,3.20
2019-02-26T00:57:08.635Z,3.00
2019-02-26T00:58:08.538Z,2.70
2019-02-26T00:59:06.598Z,3.00
2019-02-26T01:00:07.727Z,3.20
2019-02-26T01:01:10.235Z,3.00
2019-02-26T01:02:06.542Z,3.50
2019-02-26T01:03:08.425Z,2.80
2019-02-26T01:04:06.532Z,3.10
2019-02-26T01:05:08.664Z,2.70
2019-02-26T01:06:07.989Z,3.40
2019-02-26T01:07:07.539Z,4.00
2019-02-26T01:08:10.614Z,3.20
2019-02-26T01:09:08.726Z,3.70
2019-02-26T01:10:06.463Z,3.00
2019-02-26T01:11:08.224Z,3.10
2019-02-26T01:12:07.218Z,2.80
2019-02-26T01:13:07.258Z,3.90
2019-02-26T01:14:06.434Z,3.10
2019-02-26T01:15:07.234Z,3.20
2019-02-26T01:16:06.433Z,3.00
2019-02-26T01:17:08.182Z,3.30
2019-02-26T01:18:06.876Z,2.70
2019-02-26T01:19:08.527Z,3.00
2019-02-26T01:20:06.368Z,3.60
2019-02-26T01:21:06.377Z,2.60
2019-02-26T01:22:06.322Z,2.40
2019-02-26T01:23:06.328Z,3.30
2019-02-26T01:24:06.968Z,2.90
2019-02-26T01:25:06.295Z,3.30
2019-02-26T01:26:06.313Z,2.90
2019-02-26T01:27:06.283Z,3.00
2019-02-26T01:28:06.274Z,3.20
2019-02-26T01:29:06.273Z,2.80
2019-02-26T01:30:06.245Z,2.90
2019-02-26T01:31:07.376Z,4.10
2019-02-26T01:32:08.913Z,3.60
2019-02-26T01:33:08.064Z,3.20
2019-02-26T01:34:06.263Z,3.10
2019-02-26T01:35:08.197Z,3.90
2019-02-26T01:36:06.194Z,3.40
2019-02-26T01:37:08.191Z,4.10
2019-02-26T01:38:06.210Z,3.40
2019-02-26T01:39:09.297Z,2.30
2019-02-26T01:40:09.382Z,2.80
2019-02-26T01:41:06.125Z,3.20
2019-02-26T01:42:06.120Z,2.80
2019-02-26T01:43:06.116Z,3.10
2019-02-26T01:44:06.120Z,3.60
2019-02-26T01:45:06.088Z,3.20
2019-02-26T01:46:07.777Z,3.30
2019-02-26T01:47:06.062Z,2.90
2019-02-26T01:48:08.347Z,2.90
2019-02-26T01:49:06.052Z,3.90
2019-02-26T01:50:07.107Z,2.70
2019-02-26T01:51:06.022Z,3.60
2019-02-26T01:52:06.644Z,3.40
2019-02-26T01:53:06.009Z,3.40
2019-02-26T01:54:08.061Z,3.70
2019-02-26T01:55:05.991Z,3.10
2019-02-26T01:56:05.995Z,2.70
2019-02-26T01:57:08.608Z,2.80
2019-02-26T01:58:05.951Z,3.30
2019-02-26T01:59:05.937Z,2.90
2019-02-26T02:00:06.916Z,2.90
2019-02-26T02:01:05.912Z,3.50
2019-02-26T02:02:05.901Z,3.80
2019-02-26T02:03:05.893Z,2.70
2019-02-26T02:04:05.890Z,2.60
2019-02-26T02:05:07.093Z,3.00
2019-02-26T02:06:06.638Z,3.10
2019-02-26T02:07:06.082Z,3.50
2019-02-26T02:08:09.040Z,3.40
2019-02-26T02:09:09.301Z,3.40
2019-02-26T02:10:05.839Z,3.50
2019-02-26T02:11:07.562Z,3.20
2019-02-26T02:12:07.144Z,2.60
2019-02-26T02:13:09.245Z,3.00
2019-02-26T02:14:06.505Z,3.30
2019-02-26T02:15:05.781Z,2.90
2019-02-26T02:16:06.795Z,3.40
2019-02-26T02:17:06.538Z,3.10
2019-02-26T02:18:06.203Z,3.60
2019-02-26T02:19:05.732Z,3.00
2019-02-26T02:20:07.981Z,3.10
2019-02-26T02:21:05.710Z,3.10
2019-02-26T02:22:05.700Z,3.50
2019-02-26T02:23:07.119Z,3.70
2019-02-26T02:24:10.737Z,2.60
2019-02-26T02:25:05.683Z,3.20
2019-02-26T02:26:07.107Z,2.70
2019-02-26T02:27:05.647Z,3.40
2019-02-26T02:28:05.674Z,2.30
2019-02-26T02:29:05.625Z,3.20
2019-02-26T02:30:05.639Z,3.40
2019-02-26T02:31:05.603Z,3.30
2019-02-26T02:32:07.589Z,2.50
2019-02-26T02:33:05.585Z,3.20
2019-02-26T02:34:05.580Z,3.00
2019-02-26T02:35:06.852Z,3.00
2019-02-26T02:36:05.538Z,2.40
2019-02-26T02:37:05.530Z,2.90
2019-02-26T02:38:05.531Z,2.80
2019-02-26T02:39:10.316Z,2.80
2019-02-26T02:40:05.545Z,2.60
2019-02-26T02:41:05.519Z,2.90
2019-02-26T02:42:05.487Z,3.00
2019-02-26T02:43:09.738Z,3.40
2019-02-26T02:44:05.476Z,3.00
2019-02-26T02:45:07.632Z,3.10
2019-02-26T02:46:05.435Z,4.40
2019-02-26T02:47:06.786Z,2.40
2019-02-26T02:48:06.350Z,2.30
2019-02-26T02:49:07.506Z,2.90
2019-02-26T02:50:08.709Z,3.00
2019-02-26T02:51:07.993Z,3.30
2019-02-26T02:52:07.219Z,3.40
2019-02-26T02:53:05.359Z,2.90
2019-02-26T02:54:05.351Z,2.10
2019-02-26T02:55:06.987Z,2.90
2019-02-26T02:56:06.359Z,2.80
2019-02-26T02:57:07.586Z,2.60
2019-02-26T02:58:05.309Z,2.90
2019-02-26T02:59:05.953Z,3.10
2019-02-26T03:00:08.394Z,2.80
2019-02-26T03:01:05.321Z,3.50
2019-02-26T03:02:05.280Z,3.10
2019-02-26T03:03:05.253Z,3.70
2019-02-26T03:04:05.265Z,2.70
2019-02-26T03:05:05.262Z,3.20
2019-02-26T03:06:07.619Z,2.70
2019-02-26T03:07:05.222Z,2.70
2019-02-26T03:08:05.203Z,3.20
2019-02-26T03:09:06.864Z,3.70
2019-02-26T03:10:06.890Z,3.30
2019-02-26T03:11:05.175Z,2.90
2019-02-26T03:12:05.166Z,3.00
2019-02-26T03:13:05.148Z,2.70
2019-02-26T03:14:06.260Z,2.60
2019-02-26T03:15:07.453Z,2.50
2019-02-26T03:16:05.121Z,3.30
2019-02-26T03:17:06.408Z,2.50
2019-02-26T03:18:08.558Z,2.90
2019-02-26T03:19:07.131Z,2.60
2019-02-26T03:20:07.396Z,2.80
2019-02-26T03:21:05.085Z,4.30
2019-02-26T03:22:07.136Z,3.60
2019-02-26T03:23:07.307Z,2.60
2019-02-26T03:24:06.116Z,3.20
2019-02-26T03:25:05.033Z,2.80
2019-02-26T03:26:05.025Z,2.40
2019-02-26T03:27:05.001Z,3.10
2019-02-26T03:28:04.993Z,2.60
2019-02-26T03:29:04.998Z,4.00
2019-02-26T03:30:05.004Z,2.70
2019-02-26T03:31:05.075Z,2.80
2019-02-26T03:32:04.964Z,2.80
2019-02-26T03:33:05.027Z,2.40
2019-02-26T03:34:10.425Z,3.10
2019-02-26T03:35:07.350Z,2.60
2019-02-26T03:36:06.161Z,3.60
2019-02-26T03:37:06.277Z,3.30
2019-02-26T03:38:04.916Z,3.30
2019-02-26T03:39:04.908Z,3.00
2019-02-26T03:40:06.542Z,2.20
2019-02-26T03:41:04.875Z,3.00
2019-02-26T03:42:04.861Z,2.40
2019-02-26T03:43:07.479Z,3.30
2019-02-26T03:44:06.399Z,2.60
2019-02-26T03:45:04.807Z,3.00
2019-02-26T03:46:04.805Z,3.10
2019-02-26T03:47:04.790Z,3.10
2019-02-26T03:48:04.786Z,2.80
2019-02-26T03:49:04.771Z,2.90
2019-02-26T03:50:08.531Z,2.80
2019-02-26T03:51:04.757Z,2.60
2019-02-26T03:52:04.737Z,3.50
2019-02-26T03:53:09.061Z,2.90
2019-02-26T03:54:04.709Z,2.20
2019-02-26T03:55:06.812Z,2.70
2019-02-26T03:56:08.146Z,2.80
2019-02-26T03:57:04.678Z,3.10
2019-02-26T03:58:04.681Z,2.70
2019-02-26T03:59:06.797Z,3.10
2019-02-26T04:00:08.177Z,2.70
2019-02-26T04:01:07.503Z,2.50
2019-02-26T04:02:04.748Z,2.40
2019-02-26T04:03:05.929Z,2.90
2019-02-26T04:04:05.377Z,2.60
2019-02-26T04:05:08.260Z,3.00
2019-02-26T04:06:07.517Z,3.00
2019-02-26T04:07:07.165Z,2.80
2019-02-26T04:08:04.839Z,2.90
2019-02-26T04:09:04.573Z,2.40
2019-02-26T04:10:04.604Z,3.60
2019-02-26T04:11:04.667Z,2.70
2019-02-26T04:12:07.473Z,3.10
2019-02-26T04:13:04.561Z,2.50
2019-02-26T04:14:04.560Z,2.40
2019-02-26T04:15:05.785Z,3.10
2019-02-26T04:16:04.734Z,2.50
2019-02-26T04:17:06.433Z,3.70
2019-02-26T04:18:04.492Z,2.30
2019-02-26T04:19:05.876Z,2.60
2019-02-26T04:20:05.766Z,3.80
2019-02-26T04:21:06.025Z,2.60
2019-02-26T04:22:04.458Z,2.50
2019-02-26T04:23:04.878Z,3.60
2019-02-26T04:24:05.920Z,2.70
2019-02-26T04:25:06.318Z,2.70
2019-02-26T04:26:04.448Z,3.00
2019-02-26T04:27:05.144Z,2.70
2019-02-26T04:28:05.212Z,2.70
2019-02-26T04:29:04.373Z,2.70
2019-02-26T04:30:05.919Z,2.50
2019-02-26T04:31:04.374Z,2.60
2019-02-26T04:32:04.326Z,2.80
2019-02-26T04:33:06.582Z,2.20
2019-02-26T04:34:07.925Z,2.10
2019-02-26T04:35:04.286Z,2.70
2019-02-26T04:36:04.312Z,2.40
2019-02-26T04:37:04.742Z,2.60
2019-02-26T04:38:06.337Z,3.30
2019-02-26T04:39:04.250Z,2.70
2019-02-26T04:40:07.505Z,3.10
2019-02-26T04:41:08.842Z,2.20
2019-02-26T04:42:05.573Z,2.90
2019-02-26T04:43:04.695Z,3.50
2019-02-26T04:44:06.109Z,3.10
2019-02-26T04:45:05.884Z,3.20
2019-02-26T04:46:05.053Z,3.30
2019-02-26T04:47:05.918Z,2.90
2019-02-26T04:48:04.142Z,2.60
2019-02-26T04:49:04.142Z,2.50
2019-02-26T04:50:06.170Z,2.40
2019-02-26T04:51:04.153Z,2.80
2019-02-26T04:52:05.563Z,2.70
2019-02-26T04:53:05.817Z,2.40
2019-02-26T04:54:04.131Z,2.50
2019-02-26T04:55:04.067Z,2.10
2019-02-26T04:56:06.322Z,2.10
2019-02-26T04:57:05.850Z,2.30
2019-02-26T04:58:04.111Z,3.30
2019-02-26T04:59:06.231Z,3.30
2019-02-26T05:00:05.193Z,2.90
2019-02-26T05:01:04.793Z,2.70
2019-02-26T05:02:04.044Z,3.10
2019-02-26T05:03:05.106Z,2.70
2019-02-26T05:04:04.066Z,2.90
2019-02-26T05:05:06.336Z,2.60
2019-02-26T05:06:07.348Z,2.30
2019-02-26T05:07:05.191Z,2.30
2019-02-26T05:08:04.803Z,3.10
2019-02-26T05:09:05.566Z,3.10
2019-02-26T05:10:04.268Z,2.70
2019-02-26T05:11:03.966Z,2.80
2019-02-26T05:12:03.916Z,2.90
2019-02-26T05:13:06.435Z,3.00
2019-02-26T05:14:03.945Z,3.40
2019-02-26T05:15:03.855Z,2.30
2019-02-26T05:16:03.886Z,3.00
2019-02-26T05:17:03.839Z,2.80
2019-02-26T05:18:03.831Z,3.30
2019-02-26T05:19:03.869Z,2.30
2019-02-26T05:20:06.310Z,4.40
2019-02-26T05:21:05.213Z,3.20
2019-02-26T05:22:04.525Z,2.30
2019-02-26T05:23:06.197Z,2.80
2019-02-26T05:24:03.795Z,3.30
2019-02-26T05:25:04.835Z,2.20
2019-02-26T05:26:05.550Z,3.70
2019-02-26T05:27:03.773Z,2.30
2019-02-26T05:28:06.267Z,2.80
2019-02-26T05:29:03.724Z,2.60
2019-02-26T05:30:03.752Z,2.50
2019-02-26T05:31:06.407Z,2.20
2019-02-26T05:32:04.765Z,2.40
2019-02-26T05:33:05.586Z,2.70
2019-02-26T05:34:03.675Z,2.30
2019-02-26T05:35:03.680Z,3.00
2019-02-26T05:36:06.062Z,2.60
2019-02-26T05:37:04.707Z,2.70
2019-02-26T05:38:06.830Z,2.40
2019-02-26T05:39:03.635Z,2.40
2019-02-26T05:40:03.673Z,2.30
2019-02-26T05:41:03.571Z,2.70
2019-02-26T05:42:06.185Z,2.60
2019-02-26T05:43:04.827Z,2.90
2019-02-26T05:44:07.155Z,2.30
2019-02-26T05:45:05.962Z,2.50
2019-02-26T05:46:04.044Z,2.60
2019-02-26T05:47:03.537Z,2.80
2019-02-26T05:48:03.508Z,3.00
2019-02-26T05:49:05.849Z,3.30
2019-02-26T05:50:06.217Z,2.50
2019-02-26T05:51:05.692Z,3.00
2019-02-26T05:52:04.237Z,2.50
2019-02-26T05:53:05.519Z,3.20
2019-02-26T05:54:07.777Z,3.20
2019-02-26T05:55:03.435Z,2.60
2019-02-26T05:56:03.442Z,3.90
2019-02-26T05:57:04.793Z,2.60
2019-02-26T05:58:03.587Z,3.40
2019-02-26T05:59:06.826Z,2.50
2019-02-26T06:00:03.422Z,3.70
2019-02-26T06:01:03.373Z,2.80
2019-02-26T06:02:03.396Z,3.20
2019-02-26T06:03:06.163Z,4.90
2019-02-26T06:04:04.781Z,4.80
2019-02-26T06:05:03.349Z,7.40
2019-02-26T06:06:03.369Z,5.90
2019-02-26T06:07:04.754Z,6.40
2019-02-26T06:08:03.329Z,4.60
2019-02-26T06:09:05.704Z,6.90
2019-02-26T06:10:03.276Z,6.70
2019-02-26T06:11:03.299Z,7.00
2019-02-26T06:12:03.293Z,5.90
2019-02-26T06:13:05.014Z,6.10
2019-02-26T06:14:09.076Z,6.60
2019-02-26T06:15:05.904Z,4.80
2019-02-26T06:16:05.386Z,6.60
2019-02-26T06:17:03.231Z,7.00
2019-02-26T06:18:03.212Z,8.10
2019-02-26T06:19:03.278Z,8.60
2019-02-26T06:20:05.608Z,6.40
2019-02-26T06:21:03.306Z,6.40
2019-02-26T06:22:03.173Z,6.80
2019-02-26T06:23:03.152Z,6.10
2019-02-26T06:24:03.237Z,5.70
2019-02-26T06:25:08.171Z,6.20
2019-02-26T06:26:05.996Z,5.90
2019-02-26T06:27:03.256Z,4.90
2019-02-26T06:28:06.933Z,6.80
2019-02-26T06:29:03.068Z,5.00
2019-02-26T06:30:06.353Z,5.30
2019-02-26T06:31:03.050Z,5.90
2019-02-26T06:32:05.199Z,4.80
2019-02-26T06:33:04.345Z,7.10
2019-02-26T06:34:05.631Z,5.30
2019-02-26T06:35:06.121Z,5.80
2019-02-26T06:36:04.682Z,4.50
2019-02-26T06:37:02.990Z,5.80
2019-02-26T06:38:04.584Z,5.60
2019-02-26T06:39:04.211Z,6.60
2019-02-26T06:40:05.139Z,5.50
2019-02-26T06:41:02.956Z,5.20
2019-02-26T06:42:03.476Z,4.60
2019-02-26T06:43:02.937Z,4.40
2019-02-26T06:44:02.913Z,5.60
2019-02-26T06:45:03.973Z,4.90
2019-02-26T06:46:04.907Z,5.90
2019-02-26T06:47:04.716Z,5.10
2019-02-26T06:48:02.889Z,5.80
2019-02-26T06:49:02.855Z,7.40
2019-02-26T06:50:03.099Z,6.20
2019-02-26T06:51:04.696Z,5.90
2019-02-26T06:52:02.843Z,5.60
2019-02-26T06:53:04.639Z,4.80
2019-02-26T06:54:02.821Z,6.00
2019-02-26T06:55:03.595Z,5.20
2019-02-26T06:56:02.805Z,6.00
2019-02-26T06:57:02.773Z,8.20
2019-02-26T06:58:02.796Z,3.90
2019-02-26T06:59:03.618Z,5.50
2019-02-26T07:00:04.217Z,7.80
2019-02-26T07:01:02.757Z,6.20
2019-02-26T07:02:02.726Z,5.10
2019-02-26T07:03:02.827Z,6.80
2019-02-26T07:04:02.714Z,5.30
2019-02-26T07:05:02.704Z,5.60
2019-02-26T07:06:04.856Z,5.40
2019-02-26T07:07:04.426Z,5.30
2019-02-26T07:08:04.806Z,5.70
2019-02-26T07:09:02.670Z,8.70
2019-02-26T07:10:02.656Z,6.90
2019-02-26T07:11:03.844Z,5.70
2019-02-26T07:12:02.678Z,6.30
2019-02-26T07:13:05.047Z,4.30
2019-02-26T07:14:03.599Z,5.70
2019-02-26T07:15:02.665Z,5.10
2019-02-26T07:16:04.690Z,4.60
2019-02-26T07:17:02.569Z,6.60
2019-02-26T07:18:05.094Z,5.20
2019-02-26T07:19:03.920Z,4.20
2019-02-26T07:20:03.273Z,4.30
2019-02-26T07:21:02.636Z,5.80
2019-02-26T07:22:02.559Z,5.40
2019-02-26T07:23:03.905Z,5.00
2019-02-26T07:24:03.462Z,4.30
2019-02-26T07:25:02.548Z,4.70
2019-02-26T07:26:02.465Z,4.30
2019-02-26T07:27:04.183Z,5.10
2019-02-26T07:28:02.975Z,4.10
2019-02-26T07:29:03.452Z,4.50
2019-02-26T07:30:02.486Z,5.10
2019-02-26T07:31:03.286Z,5.40
2019-02-26T07:32:02.407Z,4.10
2019-02-26T07:33:03.114Z,3.70
2019-02-26T07:34:03.190Z,6.20
2019-02-26T07:35:04.032Z,4.40
2019-02-26T07:36:04.197Z,5.90
2019-02-26T07:37:04.126Z,4.20
2019-02-26T07:38:03.555Z,4.80
2019-02-26T07:39:02.351Z,7.00
2019-02-26T07:40:03.780Z,5.60
2019-02-26T07:41:03.790Z,5.80
2019-02-26T07:42:02.303Z,5.80
2019-02-26T07:43:04.864Z,4.50
2019-02-26T07:44:02.285Z,5.20
2019-02-26T07:45:02.292Z,5.90
2019-02-26T07:46:02.318Z,4.50
2019-02-26T07:47:03.674Z,6.30
2019-02-26T07:48:02.250Z,5.60
2019-02-26T07:49:04.773Z,3.50
2019-02-26T07:50:04.631Z,6.30
2019-02-26T07:51:02.290Z,4.90
2019-02-26T07:52:03.875Z,5.50
2019-02-26T07:53:02.271Z,5.50
2019-02-26T07:54:02.234Z,5.80
2019-02-26T07:55:03.707Z,3.70
2019-02-26T07:56:04.409Z,4.70
2019-02-26T07:57:02.798Z,5.20
2019-02-26T07:58:02.206Z,4.30
2019-02-26T07:59:06.784Z,4.80
2019-02-26T08:00:02.138Z,5.70
2019-02-26T08:01:02.188Z,4.90
2019-02-26T08:02:03.789Z,5.00
2019-02-26T08:03:04.475Z,4.00
2019-02-26T08:04:02.103Z,7.30
2019-02-26T08:05:02.049Z,6.30
2019-02-26T08:06:04.836Z,5.30
2019-02-26T08:07:03.753Z,4.20
2019-02-26T08:08:02.113Z,4.50
2019-02-26T08:09:04.638Z,5.00
2019-02-26T08:10:02.089Z,4.10
2019-02-26T08:11:02.133Z,4.40
2019-02-26T08:12:04.245Z,3.20
2019-02-26T08:13:03.334Z,4.20
2019-02-26T08:14:02.069Z,3.80
2019-02-26T08:15:03.099Z,4.60
2019-02-26T08:16:05.026Z,4.60
2019-02-26T08:17:03.895Z,3.30
2019-02-26T08:18:03.453Z,3.70
2019-02-26T08:19:01.912Z,4.30
2019-02-26T08:20:04.276Z,4.00
2019-02-26T08:21:02.997Z,4.70
2019-02-26T08:22:01.898Z,5.80
2019-02-26T08:23:01.863Z,4.20
2019-02-26T08:24:01.902Z,4.20
2019-02-26T08:25:01.840Z,4.40
2019-02-26T08:26:02.285Z,4.90
2019-02-26T08:27:03.389Z,5.30
2019-02-26T08:28:01.828Z,3.50
2019-02-26T08:29:05.113Z,5.30
2019-02-26T08:30:01.802Z,4.40
2019-02-26T08:31:02.776Z,5.20
2019-02-26T08:32:02.070Z,4.50
2019-02-26T08:33:04.367Z,4.50
2019-02-26T08:34:01.775Z,5.50
2019-02-26T08:35:01.803Z,4.70
2019-02-26T08:36:01.756Z,5.30
2019-02-26T08:37:01.723Z,5.90
2019-02-26T08:38:05.620Z,3.90
2019-02-26T08:39:01.686Z,4.00
2019-02-26T08:40:01.702Z,5.00
2019-02-26T08:41:01.666Z,4.40
2019-02-26T08:42:01.717Z,4.00
2019-02-26T08:43:01.655Z,3.90
2019-02-26T08:44:01.849Z,4.80
2019-02-26T08:45:02.265Z,4.90
2019-02-26T08:46:01.612Z,5.40
2019-02-26T08:47:06.045Z,4.80
2019-02-26T08:48:01.600Z,6.40
2019-02-26T08:49:08.044Z,5.60
2019-02-26T08:50:03.986Z,5.30
2019-02-26T08:51:05.388Z,6.20
2019-02-26T08:52:01.574Z,5.40
2019-02-26T08:53:01.575Z,7.40
2019-02-26T08:54:01.552Z,4.20
2019-02-26T08:55:01.534Z,6.70
2019-02-26T08:56:03.962Z,9.00
2019-02-26T08:57:01.596Z,6.40
2019-02-26T08:58:01.494Z,5.80
2019-02-26T08:59:03.613Z,4.60
2019-02-26T09:00:01.549Z,9.30
2019-02-26T09:01:01.516Z,6.40
2019-02-26T09:02:01.517Z,4.70
2019-02-26T09:03:01.525Z,5.90
2019-02-26T09:04:01.514Z,10.00
2019-02-26T09:05:04.463Z,5.60
2019-02-26T09:06:10.875Z,7.20
2019-02-26T09:07:02.147Z,5.00
2019-02-26T09:08:01.438Z,6.50
2019-02-26T09:09:02.701Z,6.20
2019-02-26T09:10:01.459Z,6.50
2019-02-26T09:11:03.369Z,6.10
2019-02-26T09:12:03.204Z,5.30
2019-02-26T09:13:01.704Z,6.70
2019-02-26T09:14:04.321Z,5.10
2019-02-26T09:15:01.355Z,5.80
2019-02-26T09:16:03.039Z,8.10
2019-02-26T09:17:02.072Z,7.80
2019-02-26T09:18:01.284Z,5.60
2019-02-26T09:19:01.692Z,7.00
2019-02-26T09:20:09.366Z,5.10
2019-02-26T09:21:01.330Z,5.90
2019-02-26T09:22:01.426Z,5.90
2019-02-26T09:23:01.640Z,6.90
2019-02-26T09:24:02.605Z,4.80
2019-02-26T09:25:04.369Z,6.50
2019-02-26T09:26:04.445Z,4.60
2019-02-26T09:27:03.328Z,5.00
2019-02-26T09:28:01.188Z,6.20
2019-02-26T09:29:01.244Z,4.40
2019-02-26T09:30:03.281Z,6.70
2019-02-26T09:31:04.049Z,6.50
2019-02-26T09:32:01.156Z,5.00
2019-02-26T09:33:03.160Z,4.50
2019-02-26T09:34:01.099Z,5.00
2019-02-26T09:35:04.106Z,6.10
2019-02-26T09:36:01.113Z,6.70
2019-02-26T09:37:03.031Z,4.80
2019-02-26T09:38:01.167Z,6.80
2019-02-26T09:39:03.274Z,5.50
2019-02-26T09:40:02.839Z,5.70
2019-02-26T09:41:01.076Z,5.20
2019-02-26T09:42:02.245Z,5.00
2019-02-26T09:43:01.439Z,5.60
2019-02-26T09:44:03.850Z,5.10
2019-02-26T09:45:00.980Z,5.20
2019-02-26T09:46:01.261Z,5.80
2019-02-26T09:47:03.048Z,4.70
2019-02-26T09:48:01.549Z,4.60
2019-02-26T09:49:03.150Z,6.40
2019-02-26T09:50:02.835Z,4.70
2019-02-26T09:51:02.149Z,5.20
2019-02-26T09:52:01.621Z,7.90
2019-02-26T09:53:00.994Z,5.10
2019-02-26T09:54:00.910Z,5.90
2019-02-26T09:55:00.883Z,4.90
2019-02-26T09:56:00.900Z,4.80
2019-02-26T09:57:00.885Z,5.20
2019-02-26T09:58:02.572Z,4.80
2019-02-26T09:59:02.377Z,4.30
2019-02-26T10:00:03.355Z,5.20
2019-02-26T10:01:00.829Z,6.70
2019-02-26T10:02:01.730Z,4.70
2019-02-26T10:03:02.637Z,4.50
2019-02-26T10:04:01.433Z,5.40
2019-02-26T10:05:00.794Z,4.20
2019-02-26T10:06:00.778Z,4.70
2019-02-26T10:07:02.256Z,9.40
2019-02-26T10:08:03.499Z,7.10
2019-02-26T10:09:00.859Z,4.70
2019-02-26T10:10:03.415Z,4.50
2019-02-26T10:11:02.767Z,5.70
2019-02-26T10:12:02.681Z,4.50
2019-02-26T10:13:02.845Z,4.30
2019-02-26T10:14:02.729Z,5.00
2019-02-26T10:15:02.437Z,5.00
2019-02-26T10:16:01.980Z,4.20
2019-02-26T10:17:00.723Z,5.80
2019-02-26T10:18:03.492Z,6.70
2019-02-26T10:19:00.663Z,5.40
2019-02-26T10:20:01.737Z,4.50
2019-02-26T10:21:00.623Z,7.40
2019-02-26T10:22:02.865Z,5.30
2019-02-26T10:23:03.559Z,3.20
2019-02-26T10:24:02.075Z,4.70
2019-02-26T10:25:00.594Z,6.60
2019-02-26T10:26:02.819Z,6.90
2019-02-26T10:27:03.016Z,6.50
2019-02-26T10:28:05.792Z,6.50
2019-02-26T10:29:04.575Z,5.70
2019-02-26T10:30:02.933Z,7.70
2019-02-26T10:31:04.395Z,7.60
2019-02-26T10:32:00.550Z,7.20
2019-02-26T10:33:02.736Z,7.90
2019-02-26T10:34:02.871Z,6.60
2019-02-26T10:35:00.483Z,6.70
2019-02-26T10:36:00.581Z,8.20
2019-02-26T10:37:00.438Z,7.80
2019-02-26T10:38:03.623Z,8.60
2019-02-26T10:39:02.822Z,6.10
2019-02-26T10:40:00.413Z,7.20
2019-02-26T10:41:01.831Z,5.50
2019-02-26T10:42:02.556Z,7.60
2019-02-26T10:43:00.378Z,6.20
2019-02-26T10:44:00.361Z,6.70
2019-02-26T10:45:00.370Z,5.50
2019-02-26T10:46:00.372Z,6.90
2019-02-26T10:47:01.218Z,6.60
2019-02-26T10:48:01.690Z,7.70
2019-02-26T10:49:00.307Z,5.80
2019-02-26T10:50:00.349Z,7.30
2019-02-26T10:51:00.594Z,9.10
2019-02-26T10:52:00.306Z,6.30
2019-02-26T10:53:06.971Z,6.80
2019-02-26T10:54:02.611Z,7.10
2019-02-26T10:55:00.315Z,6.50
2019-02-26T10:56:00.265Z,5.60
2019-02-26T10:57:01.154Z,5.20
2019-02-26T10:58:04.806Z,6.30
2019-02-26T10:59:03.555Z,5.90
2019-02-26T11:00:02.520Z,5.30
2019-02-26T11:01:02.481Z,7.10
2019-02-26T11:02:02.424Z,4.70
2019-02-26T11:03:00.148Z,6.20
2019-02-26T11:04:00.141Z,4.60
2019-02-26T11:05:00.303Z,5.80
2019-02-26T11:06:00.136Z,5.50
2019-02-26T11:07:02.390Z,5.80
2019-02-26T11:08:02.954Z,5.50
2019-02-26T11:09:01.796Z,7.90
2019-02-26T11:10:00.100Z,6.40
2019-02-26T11:11:00.072Z,7.00
2019-02-26T11:12:00.802Z,7.90
2019-02-26T11:13:00.062Z,6.30
2019-02-26T11:14:00.048Z,6.50
2019-02-26T11:15:01.680Z,4.90
2019-02-26T11:16:03.012Z,5.70
2019-02-26T11:17:00.008Z,5.90
2019-02-26T11:18:00.003Z,6.00
2019-02-26T11:19:01.855Z,6.30
2019-02-26T11:20:01.158Z,6.60
2019-02-26T11:20:59.979Z,5.50
2019-02-26T11:22:01.050Z,5.20
2019-02-26T11:22:59.949Z,4.50
2019-02-26T11:24:00.740Z,6.90
2019-02-26T11:25:00.972Z,5.50
2019-02-26T11:25:59.904Z,5.90
2019-02-26T11:26:59.940Z,6.00
2019-02-26T11:28:02.071Z,5.10
2019-02-26T11:28:59.932Z,6.80
2019-02-26T11:30:01.809Z,5.60
2019-02-26T11:30:59.858Z,6.00
2019-02-26T11:32:01.690Z,5.40
2019-02-26T11:33:03.126Z,5.60
2019-02-26T11:34:03.253Z,5.30
2019-02-26T11:35:02.499Z,4.80
2019-02-26T11:35:59.802Z,5.90
2019-02-26T11:37:02.800Z,8.10
2019-02-26T11:37:59.770Z,6.40
2019-02-26T11:39:02.250Z,6.90
2019-02-26T11:41:13.587Z,7.40
2019-02-26T11:42:16.448Z,6.20
2019-02-26T11:43:16.896Z,5.20
2019-02-26T11:44:19.019Z,4.70
2019-02-26T11:45:16.614Z,6.30
2019-02-26T11:46:14.506Z,5.00
2019-02-26T11:47:16.646Z,5.00
2019-02-26T11:48:14.602Z,4.50
2019-02-26T11:49:16.946Z,5.10
2019-02-26T11:50:14.481Z,5.20
2019-02-26T11:51:16.828Z,6.50
2019-02-26T11:52:14.496Z,4.70
2019-02-26T11:53:14.783Z,6.40
2019-02-26T11:54:15.635Z,7.00
2019-02-26T11:55:14.427Z,4.50
2019-02-26T11:56:15.906Z,4.90
2019-02-26T11:57:15.373Z,5.90
2019-02-26T11:58:15.893Z,5.10
2019-02-26T11:59:16.381Z,4.70
2019-02-26T12:00:24.202Z,4.90
2019-02-26T12:01:14.358Z,5.50
2019-02-26T12:02:14.377Z,5.70
2019-02-26T12:03:14.356Z,7.00
2019-02-26T12:04:17.026Z,8.40
2019-02-26T12:05:14.319Z,6.10
2019-02-26T12:06:15.224Z,5.90
2019-02-26T12:07:14.306Z,4.40
2019-02-26T12:08:16.661Z,7.50
2019-02-26T12:09:16.169Z,6.90
2019-02-26T12:10:14.714Z,7.40
2019-02-26T12:11:17.819Z,7.40
2019-02-26T12:12:14.245Z,5.70
2019-02-26T12:13:15.078Z,4.60
2019-02-26T12:14:18.436Z,7.90
2019-02-26T12:15:15.235Z,4.00
2019-02-26T12:16:14.184Z,4.90
2019-02-26T12:17:14.199Z,4.50
2019-02-26T12:18:15.446Z,5.10
2019-02-26T12:19:14.275Z,8.40
2019-02-26T12:20:14.796Z,5.50
2019-02-26T12:21:14.256Z,4.00
2019-02-26T12:22:14.142Z,3.90
2019-02-26T12:23:16.164Z,4.30
2019-02-26T12:24:14.110Z,4.20
2019-02-26T12:25:14.121Z,7.80
2019-02-26T12:26:16.336Z,7.20
2019-02-26T12:27:18.037Z,3.90
2019-02-26T12:28:14.064Z,4.50
2019-02-26T12:29:16.004Z,5.30
2019-02-26T12:30:15.831Z,5.30
2019-02-26T12:31:14.061Z,4.10
2019-02-26T12:32:14.236Z,6.20
2019-02-26T12:33:14.779Z,5.00
2019-02-26T12:34:14.586Z,5.50
2019-02-26T12:35:15.899Z,4.70
2019-02-26T12:36:13.992Z,5.50
2019-02-26T12:37:13.968Z,6.80
2019-02-26T12:38:18.818Z,5.50
2019-02-26T12:39:16.160Z,5.70
2019-02-26T12:40:15.859Z,5.20
2019-02-26T12:41:15.877Z,7.00
2019-02-26T12:42:15.795Z,7.70
2019-02-26T12:43:16.286Z,5.20
2019-02-26T12:44:16.139Z,5.20
2019-02-26T12:45:13.896Z,4.40
2019-02-26T12:46:13.867Z,5.00
2019-02-26T12:47:15.461Z,7.20
2019-02-26T12:48:16.206Z,3.90
2019-02-26T12:49:15.791Z,5.50
2019-02-26T12:50:13.839Z,4.50
2019-02-26T12:51:13.823Z,5.20
2019-02-26T12:52:15.195Z,4.70
2019-02-26T12:53:17.310Z,6.10
2019-02-26T12:54:15.717Z,5.20
2019-02-26T12:55:13.818Z,6.80
2019-02-26T12:56:13.765Z,7.00
2019-02-26T12:57:15.801Z,3.50
2019-02-26T12:58:15.229Z,7.10
2019-02-26T12:59:13.729Z,3.30
2019-02-26T13:00:16.609Z,4.20
2019-02-26T13:01:13.700Z,4.60
2019-02-26T13:02:16.709Z,4.60
2019-02-26T13:03:15.808Z,4.60
2019-02-26T13:04:16.678Z,5.90
2019-02-26T13:05:16.863Z,3.60
2019-02-26T13:06:16.582Z,4.90
2019-02-26T13:07:13.640Z,5.90
2019-02-26T13:08:17.170Z,6.70
2019-02-26T13:09:13.622Z,4.00
2019-02-26T13:10:13.629Z,5.60
2019-02-26T13:11:14.058Z,4.00
2019-02-26T13:12:16.949Z,5.00
2019-02-26T13:13:13.606Z,2.40
2019-02-26T13:14:13.613Z,5.40
2019-02-26T13:15:19.030Z,4.50
2019-02-26T13:16:13.541Z,4.50
2019-02-26T13:17:14.946Z,4.50
2019-02-26T13:18:13.554Z,4.10
2019-02-26T13:19:13.508Z,4.80